createdAt,value
2022-09-21T00:00:02.463Z,0.00
2022-09-21T00:01:02.488Z,0.00
2022-09-21T00:02:02.550Z,0.00
2022-09-21T00:03:02.427Z,0.00
2022-09-21T00:04:02.415Z,0.00
2022-09-21T00:05:02.421Z,0.00
2022-09-21T00:06:02.395Z,0.00
2022-09-21T00:07:02.394Z,0.00
2022-09-21T00:08:02.360Z,0.00
2022-09-21T00:09:02.344Z,0.00
2022-09-21T00:10:02.325Z,0.00
2022-09-21T00:11:02.322Z,0.00
2022-09-21T00:12:02.345Z,0.00
2022-09-21T00:13:02.293Z,0.00
2022-09-21T00:14:02.275Z,0.00
2022-09-21T00:15:02.266Z,0.00
2022-09-21T00:16:02.245Z,0.00
2022-09-21T00:17:02.265Z,0.00
2022-09-21T00:18:02.223Z,0.00
2022-09-21T00:19:02.215Z,0.00
2022-09-21T00:20:02.196Z,0.00
2022-09-21T00:21:02.194Z,0.00
2022-09-21T00:22:02.198Z,0.00
2022-09-21T00:23:02.156Z,0.00
2022-09-21T00:24:02.147Z,0.00
2022-09-21T00:25:02.156Z,0.00
2022-09-21T00:26:02.117Z,0.00
2022-09-21T00:27:02.127Z,0.00
2022-09-21T00:28:02.096Z,0.00
2022-09-21T00:29:02.079Z,0.00
2022-09-21T00:30:02.078Z,0.00
2022-09-21T00:31:02.062Z,0.00
2022-09-21T00:32:02.120Z,0.00
2022-09-21T00:33:02.027Z,0.00
2022-09-21T00:34:02.009Z,0.00
2022-09-21T00:35:01.999Z,0.00
2022-09-21T00:36:01.990Z,0.00
2022-09-21T00:37:02.003Z,0.00
2022-09-21T00:38:01.958Z,0.00
2022-09-21T00:39:01.958Z,0.00
2022-09-21T00:40:01.951Z,0.00
2022-09-21T00:41:01.927Z,0.00
2022-09-21T00:42:01.928Z,0.00
2022-09-21T00:43:01.899Z,0.00
2022-09-21T00:44:01.880Z,0.00
2022-09-21T00:45:01.872Z,0.00
2022-09-21T00:46:01.888Z,0.00
2022-09-21T00:47:01.891Z,0.00
2022-09-21T00:48:01.829Z,0.00
2022-09-21T00:49:01.850Z,0.00
2022-09-21T00:50:01.816Z,0.00
2022-09-21T00:51:01.809Z,0.00
2022-09-21T00:52:01.798Z,0.00
2022-09-21T00:53:01.769Z,0.00
2022-09-21T00:54:01.754Z,0.00
2022-09-21T00:55:01.740Z,0.00
2022-09-21T00:56:01.759Z,0.00
2022-09-21T00:57:01.752Z,0.00
2022-09-21T00:58:01.698Z,0.00
2022-09-21T00:59:01.690Z,0.00
2022-09-21T01:00:01.672Z,0.00
2022-09-21T01:01:01.724Z,0.00
2022-09-21T01:02:01.720Z,0.00
2022-09-21T01:03:01.650Z,0.00
2022-09-21T01:04:01.611Z,0.00
2022-09-21T01:05:01.610Z,0.00
2022-09-21T01:06:01.591Z,0.00
2022-09-21T01:07:01.621Z,0.00
2022-09-21T01:08:01.562Z,0.00
2022-09-21T01:09:01.562Z,0.00
2022-09-21T01:10:01.542Z,0.00
2022-09-21T01:11:01.532Z,0.00
2022-09-21T01:12:01.547Z,0.00
2022-09-21T01:13:01.502Z,0.00
2022-09-21T01:14:01.483Z,0.00
2022-09-21T01:15:01.472Z,0.00
2022-09-21T01:16:01.501Z,0.00
2022-09-21T01:17:01.472Z,0.00
2022-09-21T01:18:01.443Z,0.00
2022-09-21T01:19:01.423Z,0.00
2022-09-21T01:20:01.424Z,0.00
2022-09-21T01:21:01.393Z,0.00
2022-09-21T01:22:01.423Z,0.00
2022-09-21T01:23:01.373Z,0.00
2022-09-21T01:24:01.355Z,0.00
2022-09-21T01:25:01.364Z,0.00
2022-09-21T01:26:01.335Z,0.00
2022-09-21T01:27:01.341Z,0.00
2022-09-21T01:28:01.309Z,0.00
2022-09-21T01:29:01.293Z,0.00
2022-09-21T01:30:01.274Z,0.00
2022-09-21T01:31:01.264Z,0.00
2022-09-21T01:32:01.264Z,0.00
2022-09-21T01:33:01.240Z,0.00
2022-09-21T01:34:01.225Z,0.00
2022-09-21T01:35:01.214Z,0.00
2022-09-21T01:36:01.193Z,0.00
2022-09-21T01:37:01.214Z,0.00
2022-09-21T01:38:01.165Z,0.00
2022-09-21T01:39:01.156Z,0.00
2022-09-21T01:40:01.193Z,0.00
2022-09-21T01:41:01.136Z,0.00
2022-09-21T01:42:01.158Z,0.00
2022-09-21T01:43:01.112Z,0.00
2022-09-21T01:44:01.086Z,0.00
2022-09-21T01:45:01.076Z,0.00
2022-09-21T01:46:01.100Z,0.00
2022-09-21T01:47:01.078Z,0.00
2022-09-21T01:48:01.037Z,0.00
2022-09-21T01:49:01.036Z,0.00
2022-09-21T01:50:01.006Z,0.00
2022-09-21T01:51:01.005Z,0.00
2022-09-21T01:52:01.007Z,0.00
2022-09-21T01:53:00.985Z,0.00
2022-09-21T01:54:00.957Z,0.00
2022-09-21T01:55:00.956Z,0.00
2022-09-21T01:56:00.928Z,0.00
2022-09-21T01:57:00.948Z,0.00
2022-09-21T01:58:00.898Z,0.00
2022-09-21T01:59:00.897Z,0.00
2022-09-21T02:00:00.879Z,0.00
2022-09-21T02:01:00.917Z,0.00
2022-09-21T02:02:00.939Z,0.00
2022-09-21T02:03:00.849Z,0.00
2022-09-21T02:04:00.828Z,0.00
2022-09-21T02:05:00.816Z,0.00
2022-09-21T02:06:00.807Z,0.00
2022-09-21T02:07:00.812Z,0.00
2022-09-21T02:08:00.779Z,0.00
2022-09-21T02:09:00.758Z,0.00
2022-09-21T02:10:00.750Z,0.00
2022-09-21T02:11:00.738Z,0.00
2022-09-21T02:12:00.748Z,0.00
2022-09-21T02:13:00.708Z,0.00
2022-09-21T02:14:00.702Z,0.00
2022-09-21T02:15:00.688Z,0.00
2022-09-21T02:16:00.712Z,0.00
2022-09-21T02:17:00.693Z,0.00
2022-09-21T02:18:00.648Z,0.00
2022-09-21T02:19:00.641Z,0.00
2022-09-21T02:20:00.622Z,0.00
2022-09-21T02:21:00.620Z,0.00
2022-09-21T02:22:00.616Z,0.00
2022-09-21T02:23:00.570Z,0.00
2022-09-21T02:24:00.568Z,0.00
2022-09-21T02:25:00.550Z,0.00
2022-09-21T02:26:00.541Z,0.00
2022-09-21T02:27:00.548Z,0.00
2022-09-21T02:28:00.510Z,0.00
2022-09-21T02:29:00.502Z,0.00
2022-09-21T02:30:00.490Z,0.00
2022-09-21T02:31:00.535Z,0.00
2022-09-21T02:32:00.481Z,0.00
2022-09-21T02:33:00.445Z,0.00
2022-09-21T02:34:00.452Z,0.00
2022-09-21T02:35:00.422Z,0.00
2022-09-21T02:36:00.411Z,0.00
2022-09-21T02:37:00.422Z,0.00
2022-09-21T02:38:00.383Z,0.00
2022-09-21T02:39:00.363Z,0.00
2022-09-21T02:40:00.482Z,0.00
2022-09-21T02:41:00.389Z,0.00
2022-09-21T02:42:00.363Z,0.00
2022-09-21T02:43:00.309Z,0.00
2022-09-21T02:44:00.327Z,0.00
2022-09-21T02:45:00.282Z,0.00
2022-09-21T02:46:00.287Z,0.00
2022-09-21T02:47:00.286Z,0.00
2022-09-21T02:48:00.243Z,0.00
2022-09-21T02:49:00.232Z,0.00
2022-09-21T02:50:00.237Z,0.00
2022-09-21T02:51:00.202Z,0.00
2022-09-21T02:52:00.224Z,0.00
2022-09-21T02:53:00.191Z,0.00
2022-09-21T02:54:00.171Z,0.00
2022-09-21T02:55:00.143Z,0.00
2022-09-21T02:56:00.143Z,0.00
2022-09-21T02:57:00.161Z,0.00
2022-09-21T02:58:00.119Z,0.00
2022-09-21T02:59:00.101Z,0.00
2022-09-21T03:00:00.105Z,0.00
2022-09-21T03:01:00.186Z,0.00
2022-09-21T03:02:00.171Z,0.00
2022-09-21T03:03:00.047Z,0.00
2022-09-21T03:04:00.036Z,0.00
2022-09-21T03:05:00.014Z,0.00
2022-09-21T03:06:00.024Z,0.00
2022-09-21T03:07:00.015Z,0.00
2022-09-21T03:07:59.986Z,0.00
2022-09-21T03:08:59.965Z,0.00
2022-09-21T03:09:59.955Z,0.00
2022-09-21T03:10:59.935Z,0.00
2022-09-21T03:11:59.953Z,0.00
2022-09-21T03:12:59.906Z,0.00
2022-09-21T03:13:59.905Z,0.00
2022-09-21T03:14:59.885Z,0.00
2022-09-21T03:15:59.926Z,0.00
2022-09-21T03:16:59.875Z,0.00
2022-09-21T03:17:59.853Z,0.00
2022-09-21T03:18:59.829Z,0.00
2022-09-21T03:19:59.826Z,0.00
2022-09-21T03:20:59.805Z,0.00
2022-09-21T03:21:59.820Z,0.00
2022-09-21T03:22:59.776Z,0.00
2022-09-21T03:23:59.776Z,0.00
2022-09-21T03:24:59.747Z,0.00
2022-09-21T03:25:59.736Z,0.00
2022-09-21T03:26:59.747Z,0.00
2022-09-21T03:27:59.718Z,0.00
2022-09-21T03:28:59.707Z,0.00
2022-09-21T03:30:02.119Z,0.00
2022-09-21T03:30:59.718Z,0.00
2022-09-21T03:31:59.696Z,0.00
2022-09-21T03:32:59.646Z,0.00
2022-09-21T03:33:59.636Z,0.00
2022-09-21T03:34:59.617Z,0.00
2022-09-21T03:35:59.617Z,0.00
2022-09-21T03:36:59.607Z,0.00
2022-09-21T03:37:59.584Z,0.00
2022-09-21T03:38:59.567Z,0.00
2022-09-21T03:39:59.588Z,0.00
2022-09-21T03:40:59.538Z,0.00
2022-09-21T03:41:59.558Z,0.00
2022-09-21T03:42:59.514Z,0.00
2022-09-21T03:43:59.508Z,0.00
2022-09-21T03:44:59.486Z,0.00
2022-09-21T03:45:59.517Z,0.00
2022-09-21T03:46:59.480Z,0.00
2022-09-21T03:47:59.473Z,0.00
2022-09-21T03:48:59.432Z,0.00
2022-09-21T03:49:59.420Z,0.00
2022-09-21T03:50:59.411Z,0.00
2022-09-21T03:51:59.431Z,0.00
2022-09-21T03:52:59.380Z,0.00
2022-09-21T03:53:59.377Z,0.00
2022-09-21T03:54:59.349Z,0.00
2022-09-21T03:55:59.349Z,0.00
2022-09-21T03:56:59.352Z,0.00
2022-09-21T03:57:59.325Z,0.00
2022-09-21T03:58:59.299Z,0.00
2022-09-21T03:59:59.290Z,0.00
2022-09-21T04:00:59.270Z,0.00
2022-09-21T04:01:59.287Z,0.00
2022-09-21T04:02:59.277Z,0.00
2022-09-21T04:03:59.240Z,0.00
2022-09-21T04:04:59.236Z,0.00
2022-09-21T04:05:59.210Z,0.00
2022-09-21T04:06:59.211Z,0.00
2022-09-21T04:07:59.180Z,0.00
2022-09-21T04:08:59.160Z,0.00
2022-09-21T04:09:59.150Z,0.00
2022-09-21T04:10:59.149Z,0.00
2022-09-21T04:11:59.152Z,0.00
2022-09-21T04:12:59.121Z,0.00
2022-09-21T04:13:59.101Z,0.00
2022-09-21T04:14:59.099Z,0.00
2022-09-21T04:15:59.137Z,0.00
2022-09-21T04:16:59.081Z,0.00
2022-09-21T04:17:59.057Z,0.00
2022-09-21T04:18:59.031Z,0.00
2022-09-21T04:19:59.021Z,0.00
2022-09-21T04:20:59.002Z,0.00
2022-09-21T04:21:59.034Z,0.00
2022-09-21T04:22:59.002Z,0.00
2022-09-21T04:23:58.972Z,0.00
2022-09-21T04:24:58.952Z,0.00
2022-09-21T04:25:58.942Z,0.00
2022-09-21T04:26:58.973Z,0.00
2022-09-21T04:27:58.923Z,0.00
2022-09-21T04:28:58.901Z,0.00
2022-09-21T04:29:58.892Z,0.00
2022-09-21T04:30:58.949Z,0.00
2022-09-21T04:31:58.885Z,0.00
2022-09-21T04:32:58.852Z,0.00
2022-09-21T04:33:58.841Z,0.00
2022-09-21T04:34:58.824Z,0.00
2022-09-21T04:35:58.819Z,0.00
2022-09-21T04:36:58.813Z,0.00
2022-09-21T04:37:58.791Z,0.00
2022-09-21T04:38:58.774Z,0.00
2022-09-21T04:39:58.797Z,0.00
2022-09-21T04:40:58.746Z,0.00
2022-09-21T04:41:58.754Z,0.00
2022-09-21T04:42:58.715Z,0.00
2022-09-21T04:43:58.705Z,0.00
2022-09-21T04:44:58.683Z,0.00
2022-09-21T04:45:58.718Z,0.00
2022-09-21T04:46:58.697Z,0.00
2022-09-21T04:47:58.652Z,0.00
2022-09-21T04:48:58.634Z,0.00
2022-09-21T04:49:58.624Z,0.00
2022-09-21T04:50:58.625Z,0.00
2022-09-21T04:51:58.624Z,0.00
2022-09-21T04:52:58.584Z,0.00
2022-09-21T04:53:58.575Z,0.00
2022-09-21T04:54:58.554Z,0.00
2022-09-21T04:55:58.545Z,0.00
2022-09-21T04:56:58.554Z,0.00
2022-09-21T04:57:58.525Z,0.00
2022-09-21T04:58:58.511Z,0.00
2022-09-21T04:59:58.494Z,0.00
2022-09-21T05:00:58.478Z,0.00
2022-09-21T05:01:58.465Z,0.00
2022-09-21T05:02:58.465Z,0.00
2022-09-21T05:03:58.513Z,0.00
2022-09-21T05:04:58.432Z,0.00
2022-09-21T05:05:58.416Z,0.00
2022-09-21T05:06:58.395Z,0.00
2022-09-21T05:07:58.414Z,0.00
2022-09-21T05:08:58.378Z,0.00
2022-09-21T05:09:58.357Z,0.00
2022-09-21T05:10:58.346Z,0.00
2022-09-21T05:11:58.347Z,0.00
2022-09-21T05:12:58.338Z,0.00
2022-09-21T05:13:58.317Z,0.00
2022-09-21T05:14:58.286Z,0.00
2022-09-21T05:15:58.324Z,0.00
2022-09-21T05:16:58.267Z,0.00
2022-09-21T05:17:58.296Z,0.00
2022-09-21T05:18:58.237Z,0.00
2022-09-21T05:19:58.245Z,0.00
2022-09-21T05:20:58.217Z,0.00
2022-09-21T05:21:58.200Z,0.00
2022-09-21T05:22:58.208Z,0.00
2022-09-21T05:23:58.187Z,0.00
2022-09-21T05:24:58.157Z,0.00
2022-09-21T05:25:58.156Z,0.00
2022-09-21T05:26:58.135Z,5.62
2022-09-21T05:27:58.150Z,5.62
2022-09-21T05:28:58.172Z,5.62
2022-09-21T05:29:58.098Z,5.62
2022-09-21T05:31:16.646Z,5.62
2022-09-21T05:31:59.069Z,5.62
2022-09-21T05:32:58.077Z,5.62
2022-09-21T05:33:58.048Z,5.62
2022-09-21T05:35:00.902Z,5.62
2022-09-21T05:36:00.759Z,5.62
2022-09-21T05:36:58.022Z,5.62
2022-09-21T05:37:58.013Z,5.62
2022-09-21T05:38:57.971Z,5.62
2022-09-21T05:39:57.967Z,5.62
2022-09-21T05:40:57.954Z,5.62
2022-09-21T05:41:57.980Z,11.25
2022-09-21T05:42:57.934Z,11.25
2022-09-21T05:43:57.963Z,11.25
2022-09-21T05:44:57.891Z,11.25
2022-09-21T05:45:57.998Z,11.25
2022-09-21T05:46:57.890Z,11.25
2022-09-21T05:47:57.863Z,11.25
2022-09-21T05:48:57.841Z,11.25
2022-09-21T05:49:57.831Z,11.25
2022-09-21T05:50:57.811Z,11.25
2022-09-21T05:51:57.830Z,11.25
2022-09-21T05:52:57.861Z,11.25
2022-09-21T05:53:57.780Z,11.25
2022-09-21T05:54:57.762Z,11.25
2022-09-21T05:55:57.751Z,16.88
2022-09-21T05:56:57.759Z,16.88
2022-09-21T05:57:57.742Z,16.88
2022-09-21T05:58:57.769Z,16.88
2022-09-21T05:59:57.774Z,16.88
2022-09-21T06:00:57.728Z,16.88
2022-09-21T06:01:57.705Z,16.88
2022-09-21T06:02:57.653Z,16.88
2022-09-21T06:03:57.651Z,16.88
2022-09-21T06:04:57.632Z,16.88
2022-09-21T06:05:57.623Z,16.88
2022-09-21T06:06:57.604Z,16.88
2022-09-21T06:07:57.613Z,16.88
2022-09-21T06:08:57.582Z,16.88
2022-09-21T06:09:57.572Z,16.88
2022-09-21T06:10:57.553Z,22.50
2022-09-21T06:11:57.571Z,22.50
2022-09-21T06:12:57.523Z,22.50
2022-09-21T06:13:57.528Z,22.50
2022-09-21T06:14:57.501Z,22.50
2022-09-21T06:15:57.493Z,22.50
2022-09-21T06:16:57.563Z,22.50
2022-09-21T06:17:57.462Z,22.50
2022-09-21T06:18:57.444Z,22.50
2022-09-21T06:19:57.434Z,22.50
2022-09-21T06:20:57.434Z,22.50
2022-09-21T06:21:57.424Z,22.50
2022-09-21T06:22:57.394Z,22.50
2022-09-21T06:23:57.494Z,28.12
2022-09-21T06:24:57.380Z,28.12
2022-09-21T06:25:58.688Z,28.12
2022-09-21T06:26:57.364Z,28.12
2022-09-21T06:27:57.324Z,28.12
2022-09-21T06:28:57.357Z,28.12
2022-09-21T06:29:57.298Z,28.12
2022-09-21T06:30:57.364Z,28.12
2022-09-21T06:31:57.294Z,28.12
2022-09-21T06:32:57.274Z,28.12
2022-09-21T06:33:57.266Z,28.12
2022-09-21T06:34:57.235Z,33.75
2022-09-21T06:35:57.224Z,33.75
2022-09-21T06:36:57.249Z,33.75
2022-09-21T06:37:57.198Z,33.75
2022-09-21T06:38:57.185Z,33.75
2022-09-21T06:39:57.166Z,33.75
2022-09-21T06:40:57.156Z,33.75
2022-09-21T06:41:57.164Z,33.75
2022-09-21T06:42:57.139Z,39.38
2022-09-21T06:43:57.234Z,39.38
2022-09-21T06:44:57.109Z,39.38
2022-09-21T06:45:57.195Z,45.00
2022-09-21T06:46:57.104Z,45.00
2022-09-21T06:47:57.063Z,45.00
2022-09-21T06:48:57.046Z,50.62
2022-09-21T06:49:57.049Z,50.62
2022-09-21T06:50:57.026Z,50.62
2022-09-21T06:51:57.027Z,50.62
2022-09-21T06:52:57.019Z,50.62
2022-09-21T06:53:56.978Z,56.25
2022-09-21T06:54:56.967Z,56.25
2022-09-21T06:55:56.958Z,56.25
2022-09-21T06:57:00.048Z,56.25
2022-09-21T06:57:56.934Z,56.25
2022-09-21T06:58:57.018Z,56.25
2022-09-21T06:59:56.898Z,56.25
2022-09-21T07:00:56.994Z,61.88
2022-09-21T07:01:57.005Z,61.88
2022-09-21T07:02:56.868Z,61.88
2022-09-21T07:03:56.847Z,61.88
2022-09-21T07:04:56.839Z,56.25
2022-09-21T07:05:56.838Z,56.25
2022-09-21T07:06:56.854Z,56.25
2022-09-21T07:07:56.797Z,56.25
2022-09-21T07:10:05.847Z,61.88
2022-09-21T07:10:57.759Z,61.88
2022-09-21T07:11:56.786Z,67.50
2022-09-21T07:12:56.738Z,67.50
2022-09-21T07:13:56.709Z,67.50
2022-09-21T07:14:56.700Z,67.50
2022-09-21T07:15:56.688Z,61.88
2022-09-21T07:16:56.710Z,61.88
2022-09-21T07:18:05.587Z,61.88
2022-09-21T07:19:03.927Z,61.88
2022-09-21T07:19:57.630Z,61.88
2022-09-21T07:20:56.629Z,67.50
2022-09-21T07:21:56.619Z,67.50
2022-09-21T07:22:56.601Z,67.50
2022-09-21T07:23:56.595Z,67.50
2022-09-21T07:24:56.570Z,67.50
2022-09-21T07:25:56.555Z,67.50
2022-09-21T07:26:56.564Z,67.50
2022-09-21T07:27:56.521Z,67.50
2022-09-21T07:28:56.532Z,67.50
2022-09-21T07:29:56.500Z,67.50
2022-09-21T07:30:56.482Z,67.50
2022-09-21T07:31:56.548Z,73.12
2022-09-21T07:32:56.462Z,73.12
2022-09-21T07:33:56.443Z,73.12
2022-09-21T07:34:56.455Z,73.12
2022-09-21T07:35:56.432Z,73.12
2022-09-21T07:36:56.433Z,73.12
2022-09-21T07:37:56.392Z,73.12
2022-09-21T07:38:56.380Z,73.12
2022-09-21T07:39:56.392Z,73.12
2022-09-21T07:40:56.366Z,73.12
2022-09-21T07:41:56.336Z,73.12
2022-09-21T07:42:56.334Z,73.12
2022-09-21T07:43:56.325Z,73.12
2022-09-21T07:45:03.855Z,73.12
2022-09-21T07:45:57.357Z,73.12
2022-09-21T07:46:56.273Z,73.12
2022-09-21T07:47:56.272Z,67.50
2022-09-21T07:48:56.267Z,67.50
2022-09-21T07:49:56.296Z,67.50
2022-09-21T07:50:56.227Z,67.50
2022-09-21T07:51:58.167Z,61.88
2022-09-21T07:52:57.203Z,67.50
2022-09-21T07:53:56.175Z,67.50
2022-09-21T07:54:56.192Z,67.50
2022-09-21T07:55:56.145Z,67.50
2022-09-21T07:56:56.147Z,67.50
2022-09-21T07:57:56.135Z,61.88
2022-09-21T07:58:56.136Z,61.88
2022-09-21T07:59:56.133Z,61.88
2022-09-21T08:00:56.142Z,61.88
2022-09-21T08:01:56.104Z,61.88
2022-09-21T08:02:56.056Z,61.88
2022-09-21T08:03:56.052Z,61.88
2022-09-21T08:04:56.076Z,61.88
2022-09-21T08:05:56.025Z,61.88
2022-09-21T08:06:56.016Z,61.88
2022-09-21T08:07:55.988Z,61.88
2022-09-21T08:08:57.967Z,61.88
2022-09-21T08:09:55.989Z,61.88
2022-09-21T08:10:55.959Z,61.88
2022-09-21T08:11:55.941Z,61.88
2022-09-21T08:12:55.941Z,61.88
2022-09-21T08:13:55.909Z,67.50
2022-09-21T08:14:55.945Z,67.50
2022-09-21T08:15:55.935Z,67.50
2022-09-21T08:16:55.878Z,67.50
2022-09-21T08:17:55.858Z,61.88
2022-09-21T08:18:55.860Z,67.50
2022-09-21T08:19:55.849Z,67.50
2022-09-21T08:20:55.818Z,67.50
2022-09-21T08:21:57.804Z,67.50
2022-09-21T08:22:55.788Z,67.50
2022-09-21T08:23:55.779Z,67.50
2022-09-21T08:24:55.798Z,67.50
2022-09-21T08:25:55.749Z,67.50
2022-09-21T08:26:55.855Z,67.50
2022-09-21T08:27:55.719Z,67.50
2022-09-21T08:28:55.743Z,67.50
2022-09-21T08:29:55.721Z,67.50
2022-09-21T08:30:55.708Z,73.12
2022-09-21T08:31:55.699Z,73.12
2022-09-21T08:32:55.660Z,73.12
2022-09-21T08:33:55.649Z,73.12
2022-09-21T08:34:55.658Z,73.12
2022-09-21T08:35:55.612Z,73.12
2022-09-21T08:36:56.005Z,73.12
2022-09-21T08:37:55.591Z,73.12
2022-09-21T08:38:55.643Z,73.12
2022-09-21T08:39:55.583Z,73.12
2022-09-21T08:40:55.552Z,73.12
2022-09-21T08:41:55.542Z,73.12
2022-09-21T08:42:55.530Z,73.12
2022-09-21T08:43:55.514Z,73.12
2022-09-21T08:44:55.522Z,73.12
2022-09-21T08:45:55.483Z,73.12
2022-09-21T08:46:55.526Z,73.12
2022-09-21T08:47:55.463Z,73.12
2022-09-21T08:48:55.443Z,73.12
2022-09-21T08:49:55.453Z,73.12
2022-09-21T08:50:55.443Z,78.75
2022-09-21T08:51:55.413Z,78.75
2022-09-21T08:52:55.393Z,78.75
2022-09-21T08:53:55.465Z,78.75
2022-09-21T08:54:55.393Z,78.75
2022-09-21T08:55:55.354Z,78.75
2022-09-21T08:57:05.070Z,78.75
2022-09-21T08:57:56.345Z,78.75
2022-09-21T08:58:55.315Z,78.75
2022-09-21T08:59:55.296Z,78.75
2022-09-21T09:00:55.296Z,78.75
2022-09-21T09:01:55.297Z,78.75
2022-09-21T09:02:55.283Z,78.75
2022-09-21T09:03:55.286Z,78.75
2022-09-21T09:04:55.239Z,78.75
2022-09-21T09:05:55.215Z,78.75
2022-09-21T09:06:55.214Z,78.75
2022-09-21T09:07:55.215Z,78.75
2022-09-21T09:08:55.184Z,78.75
2022-09-21T09:09:55.166Z,84.38
2022-09-21T09:10:55.166Z,84.38
2022-09-21T09:11:55.138Z,84.38
2022-09-21T09:12:55.146Z,84.38
2022-09-21T09:13:55.137Z,84.38
2022-09-21T09:14:55.108Z,84.38
2022-09-21T09:15:55.135Z,84.38
2022-09-21T09:16:55.076Z,84.38
2022-09-21T09:17:55.064Z,84.38
2022-09-21T09:18:55.106Z,84.38
2022-09-21T09:19:55.039Z,84.38
2022-09-21T09:20:55.018Z,84.38
2022-09-21T09:21:55.020Z,84.38
2022-09-21T09:22:54.997Z,84.38
2022-09-21T09:23:54.999Z,84.38
2022-09-21T09:24:54.970Z,84.38
2022-09-21T09:25:54.948Z,84.38
2022-09-21T09:26:54.939Z,84.38
2022-09-21T09:27:54.928Z,84.38
2022-09-21T09:28:54.954Z,90.00
2022-09-21T09:29:57.314Z,90.00
2022-09-21T09:30:54.917Z,90.00
2022-09-21T09:31:54.909Z,90.00
2022-09-21T09:32:54.881Z,90.00
2022-09-21T09:33:54.928Z,95.62
2022-09-21T09:34:54.862Z,95.62
2022-09-21T09:35:54.825Z,95.62
2022-09-21T09:36:58.821Z,95.62
2022-09-21T09:37:54.790Z,95.62
2022-09-21T09:38:54.812Z,95.62
2022-09-21T09:39:54.762Z,95.62
2022-09-21T09:40:54.759Z,90.00
2022-09-21T09:41:54.742Z,90.00
2022-09-21T09:42:54.745Z,95.62
2022-09-21T09:43:54.731Z,95.62
2022-09-21T09:44:54.702Z,95.62
2022-09-21T09:45:54.683Z,95.62
2022-09-21T09:46:54.880Z,95.62
2022-09-21T09:47:54.652Z,95.62
2022-09-21T09:48:54.678Z,95.62
2022-09-21T09:49:54.654Z,95.62
2022-09-21T09:50:54.633Z,95.62
2022-09-21T09:51:54.603Z,101.25
2022-09-21T09:52:54.593Z,101.25
2022-09-21T09:53:54.581Z,101.25
2022-09-21T09:54:54.584Z,101.25
2022-09-21T09:55:54.571Z,101.25
2022-09-21T09:56:54.546Z,101.25
2022-09-21T09:57:54.524Z,101.25
2022-09-21T09:58:54.518Z,101.25
2022-09-21T09:59:54.831Z,106.88
2022-09-21T10:00:54.516Z,106.88
2022-09-21T10:01:54.595Z,106.88
2022-09-21T10:02:54.455Z,106.88
2022-09-21T10:03:54.472Z,106.88
2022-09-21T10:04:54.435Z,106.88
2022-09-21T10:05:54.436Z,106.88
2022-09-21T10:06:54.408Z,106.88
2022-09-21T10:07:54.395Z,106.88
2022-09-21T10:08:54.396Z,106.88
2022-09-21T10:09:54.369Z,106.88
2022-09-21T10:10:54.377Z,112.50
2022-09-21T10:11:54.336Z,112.50
2022-09-21T10:12:54.327Z,112.50
2022-09-21T10:13:54.314Z,112.50
2022-09-21T10:14:54.297Z,112.50
2022-09-21T10:15:54.410Z,112.50
2022-09-21T10:16:54.278Z,118.12
2022-09-21T10:17:54.257Z,112.50
2022-09-21T10:18:54.247Z,118.12
2022-09-21T10:19:54.229Z,118.12
2022-09-21T10:20:54.249Z,118.12
2022-09-21T10:21:54.210Z,118.12
2022-09-21T10:22:54.200Z,118.12
2022-09-21T10:23:54.186Z,118.12
2022-09-21T10:24:54.176Z,118.12
2022-09-21T10:25:54.229Z,118.12
2022-09-21T10:26:54.139Z,118.12
2022-09-21T10:27:54.132Z,123.75
2022-09-21T10:28:54.145Z,123.75
2022-09-21T10:29:54.111Z,123.75
2022-09-21T10:30:54.155Z,123.75
2022-09-21T10:31:54.091Z,123.75
2022-09-21T10:32:54.061Z,129.38
2022-09-21T10:33:54.084Z,129.38
2022-09-21T10:34:54.040Z,135.00
2022-09-21T10:35:54.093Z,140.62
2022-09-21T10:36:54.021Z,146.25
2022-09-21T10:37:54.001Z,151.88
2022-09-21T10:38:53.991Z,157.50
2022-09-21T10:39:53.969Z,163.12
2022-09-21T10:40:53.982Z,163.12
2022-09-21T10:41:53.945Z,168.75
2022-09-21T10:42:53.936Z,168.75
2022-09-21T10:43:53.920Z,174.38
2022-09-21T10:44:53.903Z,196.88
2022-09-21T10:45:54.022Z,213.75
2022-09-21T10:46:53.939Z,253.12
2022-09-21T10:47:53.864Z,742.50
2022-09-21T10:48:53.847Z,2154.38
2022-09-21T10:49:53.852Z,2553.75
2022-09-21T10:50:53.842Z,2486.25
2022-09-21T10:51:53.810Z,2587.50
2022-09-21T10:52:53.789Z,2418.75
2022-09-21T10:53:54.605Z,2812.50
2022-09-21T10:54:53.765Z,2835.00
2022-09-21T10:56:11.747Z,2508.75
2022-09-21T10:56:54.744Z,2733.75
2022-09-21T10:57:53.727Z,2671.88
2022-09-21T10:58:53.706Z,2356.88
2022-09-21T10:59:53.714Z,2401.88
2022-09-21T11:00:53.704Z,2430.00
2022-09-21T11:01:53.775Z,2559.38
2022-09-21T11:02:53.699Z,2784.38
2022-09-21T11:03:53.670Z,2936.25
2022-09-21T11:04:53.631Z,3015.00
2022-09-21T11:05:53.639Z,3037.50
2022-09-21T11:06:53.602Z,2660.62
2022-09-21T11:07:53.609Z,2626.88
2022-09-21T11:08:53.580Z,2671.88
2022-09-21T11:09:53.569Z,2733.75
2022-09-21T11:10:53.571Z,2930.62
2022-09-21T11:11:53.540Z,2818.12
2022-09-21T11:12:53.541Z,3178.12
2022-09-21T11:13:53.522Z,3105.00
2022-09-21T11:14:53.503Z,2677.50
2022-09-21T11:15:53.603Z,2520.00
2022-09-21T11:16:53.473Z,2328.75
2022-09-21T11:17:53.483Z,2452.50
2022-09-21T11:18:53.454Z,2716.88
2022-09-21T11:19:53.443Z,2986.88
2022-09-21T11:20:53.455Z,3341.25
2022-09-21T11:21:53.414Z,2812.50
2022-09-21T11:22:57.387Z,2604.38
2022-09-21T11:23:53.394Z,2520.00
2022-09-21T11:24:53.539Z,2486.25
2022-09-21T11:25:53.388Z,2604.38
2022-09-21T11:26:53.348Z,2998.12
2022-09-21T11:27:53.337Z,3273.75
2022-09-21T11:28:53.324Z,2570.62
2022-09-21T11:29:53.318Z,2621.25
2022-09-21T11:30:53.344Z,3251.25
2022-09-21T11:31:53.289Z,3116.25
2022-09-21T11:32:55.000Z,2694.38
2022-09-21T11:33:53.262Z,2711.25
2022-09-21T11:34:53.239Z,3110.62
2022-09-21T11:35:53.260Z,3195.00
2022-09-21T11:36:53.228Z,2880.00
2022-09-21T11:37:53.211Z,2851.88
2022-09-21T11:38:53.193Z,3110.62
2022-09-21T11:39:53.203Z,2964.38
2022-09-21T11:40:53.192Z,2891.25
2022-09-21T11:41:53.163Z,3301.88
2022-09-21T11:42:53.149Z,3307.50
2022-09-21T11:43:53.133Z,3245.62
2022-09-21T11:44:53.131Z,3335.62
2022-09-21T11:45:53.204Z,3240.00
2022-09-21T11:46:53.103Z,3155.62
2022-09-21T11:47:53.094Z,3060.00
2022-09-21T11:48:53.229Z,2936.25
2022-09-21T11:50:03.029Z,2958.75
2022-09-21T11:50:54.076Z,2986.88
2022-09-21T11:51:55.999Z,3211.88
2022-09-21T11:52:54.030Z,3138.75
2022-09-21T11:53:53.018Z,3110.62
2022-09-21T11:54:53.037Z,3099.38
2022-09-21T11:55:52.997Z,2767.50
2022-09-21T11:56:52.982Z,3251.25
2022-09-21T11:57:55.008Z,3661.88
2022-09-21T11:58:53.242Z,3667.50
2022-09-21T11:59:52.968Z,3673.12
2022-09-21T12:00:52.930Z,3262.50
2022-09-21T12:01:52.982Z,2958.75
2022-09-21T12:02:52.956Z,2711.25
2022-09-21T12:03:52.893Z,2536.88
2022-09-21T12:04:52.902Z,2593.12
2022-09-21T12:05:52.873Z,2604.38
2022-09-21T12:06:52.865Z,3121.88
2022-09-21T12:07:52.844Z,3211.88
2022-09-21T12:08:52.824Z,3290.62
2022-09-21T12:09:52.847Z,3138.75
2022-09-21T12:10:52.805Z,3099.38
2022-09-21T12:11:52.808Z,2992.50
2022-09-21T12:12:52.775Z,2233.12
2022-09-21T12:13:52.778Z,1873.12
2022-09-21T12:14:52.807Z,2418.75
2022-09-21T12:15:52.757Z,2531.25
2022-09-21T12:16:52.810Z,3121.88
2022-09-21T12:17:52.726Z,3318.75
2022-09-21T12:18:52.708Z,3144.38
2022-09-21T12:19:52.729Z,2913.75
2022-09-21T12:20:52.686Z,2626.88
2022-09-21T12:21:52.673Z,2306.25
2022-09-21T12:22:52.660Z,793.12
2022-09-21T12:23:52.671Z,500.62
2022-09-21T12:24:52.661Z,579.38
2022-09-21T12:25:52.622Z,1237.50
2022-09-21T12:26:52.605Z,703.12
2022-09-21T12:27:52.600Z,781.88
2022-09-21T12:28:52.603Z,3048.75
2022-09-21T12:29:52.600Z,2334.38
2022-09-21T12:30:53.330Z,1091.25
2022-09-21T12:31:52.559Z,331.88
2022-09-21T12:32:52.533Z,365.62
2022-09-21T12:33:52.528Z,371.25
2022-09-21T12:34:52.619Z,298.12
2022-09-21T12:36:52.478Z,208.12
2022-09-21T12:37:52.475Z,208.12
2022-09-21T12:38:52.459Z,208.12
2022-09-21T12:39:52.468Z,202.50
2022-09-21T12:40:52.436Z,191.25
2022-09-21T12:41:52.428Z,185.62
2022-09-21T12:42:52.408Z,185.62
2022-09-21T12:43:52.399Z,196.88
2022-09-21T12:44:52.544Z,213.75
2022-09-21T12:45:52.446Z,225.00
2022-09-21T12:46:53.598Z,230.62
2022-09-21T12:47:52.362Z,225.00
2022-09-21T12:48:52.335Z,219.38
2022-09-21T12:49:52.341Z,219.38
2022-09-21T12:50:52.301Z,208.12
2022-09-21T12:51:52.291Z,213.75
2022-09-21T12:52:52.272Z,236.25
2022-09-21T12:53:52.262Z,298.12
2022-09-21T12:54:52.276Z,247.50
2022-09-21T12:55:52.243Z,236.25